sensor_id;sensor_type;location;lat;lon;timestamp;temperature;humidity
41533;DHT22;27262;-35.248;149.138;2022-08-14T00:02:26;17.40;64.20
41533;DHT22;27262;-35.248;149.138;2022-08-14T00:04:58;17.40;64.00
41533;DHT22;27262;-35.248;149.138;2022-08-14T00:07:28;17.40;64.00
41533;DHT22;27262;-35.248;149.138;2022-08-14T00:10:02;17.50;64.00
41533;DHT22;27262;-35.248;149.138;2022-08-14T00:12:54;17.50;64.00
41533;DHT22;27262;-35.248;149.138;2022-08-14T00:15:28;17.60;64.10
41533;DHT22;27262;-35.248;149.138;2022-08-14T00:18:13;17.50;63.90
41533;DHT22;27262;-35.248;149.138;2022-08-14T00:21:04;17.60;64.00
41533;DHT22;27262;-35.248;149.138;2022-08-14T00:23:39;17.60;64.00
41533;DHT22;27262;-35.248;149.138;2022-08-14T00:26:09;17.70;63.90
41533;DHT22;27262;-35.248;149.138;2022-08-14T00:28:51;17.70;64.60
41533;DHT22;27262;-35.248;149.138;2022-08-14T00:31:22;17.70;63.60
41533;DHT22;27262;-35.248;149.138;2022-08-14T00:34:11;17.80;63.60
41533;DHT22;27262;-35.248;149.138;2022-08-14T00:37:01;17.80;63.40
41533;DHT22;27262;-35.248;149.138;2022-08-14T00:39:34;17.80;63.30
41533;DHT22;27262;-35.248;149.138;2022-08-14T00:42:05;17.90;63.20
41533;DHT22;27262;-35.248;149.138;2022-08-14T00:44:55;17.90;63.10
41533;DHT22;27262;-35.248;149.138;2022-08-14T00:47:27;17.90;63.00
41533;DHT22;27262;-35.248;149.138;2022-08-14T00:50:12;17.90;62.90
41533;DHT22;27262;-35.248;149.138;2022-08-14T00:52:46;18.00;62.80
41533;DHT22;27262;-35.248;149.138;2022-08-14T00:55:19;18.00;62.70
41533;DHT22;27262;-35.248;149.138;2022-08-14T00:57:50;18.00;62.60
41533;DHT22;27262;-35.248;149.138;2022-08-14T01:00:40;18.00;62.50
41533;DHT22;27262;-35.248;149.138;2022-08-14T01:03:19;18.10;62.60
41533;DHT22;27262;-35.248;149.138;2022-08-14T01:05:51;18.10;62.40
41533;DHT22;27262;-35.248;149.138;2022-08-14T01:08:34;18.10;62.30
41533;DHT22;27262;-35.248;149.138;2022-08-14T01:11:25;18.10;62.20
41533;DHT22;27262;-35.248;149.138;2022-08-14T01:14:03;18.10;62.20
41533;DHT22;27262;-35.248;149.138;2022-08-14T01:16:54;18.20;62.30
41533;DHT22;27262;-35.248;149.138;2022-08-14T01:19:26;18.20;62.30
41533;DHT22;27262;-35.248;149.138;2022-08-14T01:22:16;18.20;62.30
41533;DHT22;27262;-35.248;149.138;2022-08-14T01:24:47;18.20;62.20
41533;DHT22;27262;-35.248;149.138;2022-08-14T01:27:20;18.30;62.30
41533;DHT22;27262;-35.248;149.138;2022-08-14T01:29:54;18.30;62.20
41533;DHT22;27262;-35.248;149.138;2022-08-14T01:32:32;18.30;62.10
41533;DHT22;27262;-35.248;149.138;2022-08-14T01:35:18;18.40;62.20
41533;DHT22;27262;-35.248;149.138;2022-08-14T01:38:09;18.40;62.10
41533;DHT22;27262;-35.248;149.138;2022-08-14T01:40:56;18.40;62.00
41533;DHT22;27262;-35.248;149.138;2022-08-14T01:43:27;18.40;61.90
41533;DHT22;27262;-35.248;149.138;2022-08-14T01:46:02;18.40;61.80
41533;DHT22;27262;-35.248;149.138;2022-08-14T01:48:51;18.40;61.70
41533;DHT22;27262;-35.248;149.138;2022-08-14T01:51:24;18.50;61.70
41533;DHT22;27262;-35.248;149.138;2022-08-14T01:54:07;18.50;62.50
41533;DHT22;27262;-35.248;149.138;2022-08-14T01:56:41;18.50;61.60
41533;DHT22;27262;-35.248;149.138;2022-08-14T01:59:22;18.50;61.60
41533;DHT22;27262;-35.248;149.138;2022-08-14T02:02:07;18.60;61.50
41533;DHT22;27262;-35.248;149.138;2022-08-14T02:04:48;18.60;61.50
41533;DHT22;27262;-35.248;149.138;2022-08-14T02:07:23;18.60;61.50
41533;DHT22;27262;-35.248;149.138;2022-08-14T02:10:14;18.50;61.40
41533;DHT22;27262;-35.248;149.138;2022-08-14T02:12:52;18.60;61.40
41533;DHT22;27262;-35.248;149.138;2022-08-14T02:15:26;18.60;61.50
41533;DHT22;27262;-35.248;149.138;2022-08-14T02:17:57;18.60;61.50
41533;DHT22;27262;-35.248;149.138;2022-08-14T02:20:31;18.60;61.40
41533;DHT22;27262;-35.248;149.138;2022-08-14T02:23:03;18.70;61.50
41533;DHT22;27262;-35.248;149.138;2022-08-14T02:25:36;18.60;61.40
41533;DHT22;27262;-35.248;149.138;2022-08-14T02:28:07;18.70;61.50
41533;DHT22;27262;-35.248;149.138;2022-08-14T02:30:58;18.70;61.40
41533;DHT22;27262;-35.248;149.138;2022-08-14T02:33:29;18.70;61.50
41533;DHT22;27262;-35.248;149.138;2022-08-14T02:36:01;18.70;61.40
41533;DHT22;27262;-35.248;149.138;2022-08-14T02:38:52;18.70;61.40
41533;DHT22;27262;-35.248;149.138;2022-08-14T02:41:23;18.70;61.60
41533;DHT22;27262;-35.248;149.138;2022-08-14T02:43:56;18.70;61.50
41533;DHT22;27262;-35.248;149.138;2022-08-14T02:46:28;18.70;61.50
41533;DHT22;27262;-35.248;149.138;2022-08-14T02:49:07;18.70;61.50
41533;DHT22;27262;-35.248;149.138;2022-08-14T02:51:46;18.70;61.70
41533;DHT22;27262;-35.248;149.138;2022-08-14T02:54:19;18.80;61.60
41533;DHT22;27262;-35.248;149.138;2022-08-14T02:56:55;18.80;61.50
41533;DHT22;27262;-35.248;149.138;2022-08-14T02:59:43;18.80;61.50
41533;DHT22;27262;-35.248;149.138;2022-08-14T03:02:17;18.80;61.40
41533;DHT22;27262;-35.248;149.138;2022-08-14T03:05:08;18.80;61.40
41533;DHT22;27262;-35.248;149.138;2022-08-14T03:07:41;18.80;61.30
41533;DHT22;27262;-35.248;149.138;2022-08-14T03:10:18;18.90;61.40
41533;DHT22;27262;-35.248;149.138;2022-08-14T03:12:59;18.90;61.40
41533;DHT22;27262;-35.248;149.138;2022-08-14T03:15:42;18.90;61.40
41533;DHT22;27262;-35.248;149.138;2022-08-14T03:18:22;18.90;61.50
41533;DHT22;27262;-35.248;149.138;2022-08-14T03:21:04;18.90;61.60
41533;DHT22;27262;-35.248;149.138;2022-08-14T03:23:36;18.90;61.70
41533;DHT22;27262;-35.248;149.138;2022-08-14T03:26:14;18.90;61.80
41533;DHT22;27262;-35.248;149.138;2022-08-14T03:28:57;18.90;61.80
41533;DHT22;27262;-35.248;149.138;2022-08-14T03:31:28;18.90;61.80
41533;DHT22;27262;-35.248;149.138;2022-08-14T03:33:59;18.90;62.00
41533;DHT22;27262;-35.248;149.138;2022-08-14T03:36:30;19.00;62.10
41533;DHT22;27262;-35.248;149.138;2022-08-14T03:39:23;19.00;62.10
41533;DHT22;27262;-35.248;149.138;2022-08-14T03:41:56;19.00;62.20
41533;DHT22;27262;-35.248;149.138;2022-08-14T03:44:28;19.00;62.30
41533;DHT22;27262;-35.248;149.138;2022-08-14T03:47:20;19.00;62.40
41533;DHT22;27262;-35.248;149.138;2022-08-14T03:50:12;19.00;62.40
41533;DHT22;27262;-35.248;149.138;2022-08-14T03:53:02;19.00;62.40
41533;DHT22;27262;-35.248;149.138;2022-08-14T03:55:34;19.00;62.40
41533;DHT22;27262;-35.248;149.138;2022-08-14T03:58:08;19.00;62.30
41533;DHT22;27262;-35.248;149.138;2022-08-14T04:00:50;19.10;62.30
41533;DHT22;27262;-35.248;149.138;2022-08-14T04:03:20;19.10;62.30
41533;DHT22;27262;-35.248;149.138;2022-08-14T04:05:55;19.10;62.20
41533;DHT22;27262;-35.248;149.138;2022-08-14T04:08:33;19.10;62.20
41533;DHT22;27262;-35.248;149.138;2022-08-14T04:11:04;19.10;62.10
41533;DHT22;27262;-35.248;149.138;2022-08-14T04:13:39;19.10;62.10
41533;DHT22;27262;-35.248;149.138;2022-08-14T04:16:15;19.10;61.90
41533;DHT22;27262;-35.248;149.138;2022-08-14T04:18:50;19.10;62.10
41533;DHT22;27262;-35.248;149.138;2022-08-14T04:21:23;19.10;62.30
41533;DHT22;27262;-35.248;149.138;2022-08-14T04:23:58;19.20;62.40
41533;DHT22;27262;-35.248;149.138;2022-08-14T04:26:33;19.20;62.30
41533;DHT22;27262;-35.248;149.138;2022-08-14T04:29:12;19.20;62.20
41533;DHT22;27262;-35.248;149.138;2022-08-14T04:31:43;19.20;62.30
41533;DHT22;27262;-35.248;149.138;2022-08-14T04:34:36;19.20;62.20
41533;DHT22;27262;-35.248;149.138;2022-08-14T04:37:23;19.30;62.30
41533;DHT22;27262;-35.248;149.138;2022-08-14T04:40:13;19.30;62.30
41533;DHT22;27262;-35.248;149.138;2022-08-14T04:43:07;19.30;62.20
41533;DHT22;27262;-35.248;149.138;2022-08-14T04:46:17;19.30;62.40
41533;DHT22;27262;-35.248;149.138;2022-08-14T04:49:08;19.30;62.20
41533;DHT22;27262;-35.248;149.138;2022-08-14T04:51:42;19.30;62.10
41533;DHT22;27262;-35.248;149.138;2022-08-14T04:54:23;19.30;62.00
41533;DHT22;27262;-35.248;149.138;2022-08-14T04:56:56;19.30;61.90
41533;DHT22;27262;-35.248;149.138;2022-08-14T04:59:27;19.30;61.80
41533;DHT22;27262;-35.248;149.138;2022-08-14T05:01:57;19.30;61.80
41533;DHT22;27262;-35.248;149.138;2022-08-14T05:04:29;19.30;61.70
41533;DHT22;27262;-35.248;149.138;2022-08-14T05:06:59;19.30;61.70
41533;DHT22;27262;-35.248;149.138;2022-08-14T05:09:29;19.30;61.60
41533;DHT22;27262;-35.248;149.138;2022-08-14T05:11:59;19.30;61.60
41533;DHT22;27262;-35.248;149.138;2022-08-14T05:14:50;19.30;61.60
41533;DHT22;27262;-35.248;149.138;2022-08-14T05:17:23;19.40;61.70
41533;DHT22;27262;-35.248;149.138;2022-08-14T05:20:11;19.30;61.50
41533;DHT22;27262;-35.248;149.138;2022-08-14T05:23:02;19.30;61.60
41533;DHT22;27262;-35.248;149.138;2022-08-14T05:25:37;19.40;61.70
41533;DHT22;27262;-35.248;149.138;2022-08-14T05:28:13;19.30;61.50
41533;DHT22;27262;-35.248;149.138;2022-08-14T05:30:52;19.40;61.60
41533;DHT22;27262;-35.248;149.138;2022-08-14T05:33:26;19.40;61.60
41533;DHT22;27262;-35.248;149.138;2022-08-14T05:36:00;19.40;61.60
41533;DHT22;27262;-35.248;149.138;2022-08-14T05:38:35;19.40;61.70
41533;DHT22;27262;-35.248;149.138;2022-08-14T05:41:11;19.40;61.60
41533;DHT22;27262;-35.248;149.138;2022-08-14T05:43:45;19.40;61.70
41533;DHT22;27262;-35.248;149.138;2022-08-14T05:46:19;19.40;61.60
41533;DHT22;27262;-35.248;149.138;2022-08-14T05:48:54;19.40;61.50
41533;DHT22;27262;-35.248;149.138;2022-08-14T05:51:26;19.40;61.60
41533;DHT22;27262;-35.248;149.138;2022-08-14T05:53:57;19.40;61.50
41533;DHT22;27262;-35.248;149.138;2022-08-14T05:56:47;19.40;61.50
41533;DHT22;27262;-35.248;149.138;2022-08-14T05:59:18;19.40;61.50
41533;DHT22;27262;-35.248;149.138;2022-08-14T06:02:08;19.40;61.50
41533;DHT22;27262;-35.248;149.138;2022-08-14T06:04:39;19.40;61.50
41533;DHT22;27262;-35.248;149.138;2022-08-14T06:07:16;19.40;61.50
41533;DHT22;27262;-35.248;149.138;2022-08-14T06:09:46;19.40;61.50
41533;DHT22;27262;-35.248;149.138;2022-08-14T06:12:19;19.40;61.40
41533;DHT22;27262;-35.248;149.138;2022-08-14T06:15:09;19.40;61.40
41533;DHT22;27262;-35.248;149.138;2022-08-14T06:17:52;19.40;61.40
41533;DHT22;27262;-35.248;149.138;2022-08-14T06:20:27;19.40;61.30
41533;DHT22;27262;-35.248;149.138;2022-08-14T06:22:58;19.40;61.40
41533;DHT22;27262;-35.248;149.138;2022-08-14T06:25:29;19.40;61.40
41533;DHT22;27262;-35.248;149.138;2022-08-14T06:28:00;19.40;61.40
41533;DHT22;27262;-35.248;149.138;2022-08-14T06:30:32;19.40;61.30
41533;DHT22;27262;-35.248;149.138;2022-08-14T06:33:14;19.40;61.30
41533;DHT22;27262;-35.248;149.138;2022-08-14T06:35:46;19.40;61.30
41533;DHT22;27262;-35.248;149.138;2022-08-14T06:38:24;19.40;61.40
41533;DHT22;27262;-35.248;149.138;2022-08-14T06:40:57;19.40;61.30
41533;DHT22;27262;-35.248;149.138;2022-08-14T06:43:28;19.40;61.40
41533;DHT22;27262;-35.248;149.138;2022-08-14T06:45:59;19.40;61.30
41533;DHT22;27262;-35.248;149.138;2022-08-14T06:48:29;19.50;61.30
41533;DHT22;27262;-35.248;149.138;2022-08-14T06:51:02;19.50;61.30
41533;DHT22;27262;-35.248;149.138;2022-08-14T06:53:32;19.50;61.40
41533;DHT22;27262;-35.248;149.138;2022-08-14T06:56:02;19.90;60.90
41533;DHT22;27262;-35.248;149.138;2022-08-14T06:58:33;20.40;59.50
41533;DHT22;27262;-35.248;149.138;2022-08-14T07:01:03;20.80;59.10
41533;DHT22;27262;-35.248;149.138;2022-08-14T07:03:57;20.80;58.60
41533;DHT22;27262;-35.248;149.138;2022-08-14T07:06:52;21.20;57.80
41533;DHT22;27262;-35.248;149.138;2022-08-14T07:09:27;21.20;57.40
41533;DHT22;27262;-35.248;149.138;2022-08-14T07:12:10;21.30;57.50
41533;DHT22;27262;-35.248;149.138;2022-08-14T07:15:03;21.40;57.00
41533;DHT22;27262;-35.248;149.138;2022-08-14T07:17:34;21.40;57.30
41533;DHT22;27262;-35.248;149.138;2022-08-14T07:20:18;21.70;56.70
41533;DHT22;27262;-35.248;149.138;2022-08-14T07:23:03;21.60;56.70
41533;DHT22;27262;-35.248;149.138;2022-08-14T07:25:40;21.80;56.40
41533;DHT22;27262;-35.248;149.138;2022-08-14T07:28:16;21.80;56.30
41533;DHT22;27262;-35.248;149.138;2022-08-14T07:30:49;21.80;56.30
41533;DHT22;27262;-35.248;149.138;2022-08-14T07:33:20;21.90;55.80
41533;DHT22;27262;-35.248;149.138;2022-08-14T07:35:59;21.90;56.00
41533;DHT22;27262;-35.248;149.138;2022-08-14T07:38:50;22.10;55.60
41533;DHT22;27262;-35.248;149.138;2022-08-14T07:41:20;22.00;55.90
41533;DHT22;27262;-35.248;149.138;2022-08-14T07:43:50;22.10;55.50
41533;DHT22;27262;-35.248;149.138;2022-08-14T07:46:24;22.10;55.50
41533;DHT22;27262;-35.248;149.138;2022-08-14T07:48:58;22.20;55.50
41533;DHT22;27262;-35.248;149.138;2022-08-14T07:51:29;22.20;55.20
41533;DHT22;27262;-35.248;149.138;2022-08-14T07:54:03;22.10;55.30
41533;DHT22;27262;-35.248;149.138;2022-08-14T07:56:40;22.30;54.90
41533;DHT22;27262;-35.248;149.138;2022-08-14T07:59:16;22.20;55.00
41533;DHT22;27262;-35.248;149.138;2022-08-14T08:02:10;22.30;54.80
41533;DHT22;27262;-35.248;149.138;2022-08-14T08:04:51;22.20;54.90
41533;DHT22;27262;-35.248;149.138;2022-08-14T08:07:28;22.40;54.70
41533;DHT22;27262;-35.248;149.138;2022-08-14T08:10:09;22.30;54.70
41533;DHT22;27262;-35.248;149.138;2022-08-14T08:13:19;22.40;54.80
41533;DHT22;27262;-35.248;149.138;2022-08-14T08:15:57;22.30;54.70
41533;DHT22;27262;-35.248;149.138;2022-08-14T08:18:27;22.40;54.80
41533;DHT22;27262;-35.248;149.138;2022-08-14T08:21:02;22.50;54.50
41533;DHT22;27262;-35.248;149.138;2022-08-14T08:23:33;22.40;54.70
41533;DHT22;27262;-35.248;149.138;2022-08-14T08:26:10;22.60;54.40
41533;DHT22;27262;-35.248;149.138;2022-08-14T08:28:43;22.40;54.60
41533;DHT22;27262;-35.248;149.138;2022-08-14T08:31:13;22.60;54.50
41533;DHT22;27262;-35.248;149.138;2022-08-14T08:33:51;22.50;54.50
41533;DHT22;27262;-35.248;149.138;2022-08-14T08:36:22;22.60;54.40
41533;DHT22;27262;-35.248;149.138;2022-08-14T08:38:59;22.60;54.30
41533;DHT22;27262;-35.248;149.138;2022-08-14T08:41:49;22.50;54.50
41533;DHT22;27262;-35.248;149.138;2022-08-14T08:44:27;22.60;54.20
41533;DHT22;27262;-35.248;149.138;2022-08-14T08:47:02;22.50;54.50
41533;DHT22;27262;-35.248;149.138;2022-08-14T08:49:38;22.50;54.40
41533;DHT22;27262;-35.248;149.138;2022-08-14T08:52:29;22.50;54.70
41533;DHT22;27262;-35.248;149.138;2022-08-14T08:54:59;22.60;54.30
41533;DHT22;27262;-35.248;149.138;2022-08-14T08:57:35;22.50;54.70
41533;DHT22;27262;-35.248;149.138;2022-08-14T09:00:13;22.70;54.40
41533;DHT22;27262;-35.248;149.138;2022-08-14T09:02:58;22.50;54.60
41533;DHT22;27262;-35.248;149.138;2022-08-14T09:05:33;22.60;54.60
41533;DHT22;27262;-35.248;149.138;2022-08-14T09:08:29;22.50;54.70
41533;DHT22;27262;-35.248;149.138;2022-08-14T09:11:07;22.60;54.50
41533;DHT22;27262;-35.248;149.138;2022-08-14T09:13:49;22.50;54.60
41533;DHT22;27262;-35.248;149.138;2022-08-14T09:16:24;22.60;54.90
41533;DHT22;27262;-35.248;149.138;2022-08-14T09:18:55;22.60;54.60
41533;DHT22;27262;-35.248;149.138;2022-08-14T09:21:26;22.50;54.90
41533;DHT22;27262;-35.248;149.138;2022-08-14T09:23:59;22.70;54.60
41533;DHT22;27262;-35.248;149.138;2022-08-14T09:26:49;22.50;54.80
41533;DHT22;27262;-35.248;149.138;2022-08-14T09:29:21;22.70;54.60
41533;DHT22;27262;-35.248;149.138;2022-08-14T09:31:59;22.60;54.70
41533;DHT22;27262;-35.248;149.138;2022-08-14T09:35:14;22.60;54.70
41533;DHT22;27262;-35.248;149.138;2022-08-14T09:37:53;22.60;54.40
41533;DHT22;27262;-35.248;149.138;2022-08-14T09:46:34;22.60;54.70
41533;DHT22;27262;-35.248;149.138;2022-08-14T09:49:05;22.60;54.60
41533;DHT22;27262;-35.248;149.138;2022-08-14T09:51:43;22.60;54.80
41533;DHT22;27262;-35.248;149.138;2022-08-14T09:54:44;22.60;54.50
41533;DHT22;27262;-35.248;149.138;2022-08-14T09:57:26;22.60;54.50
41533;DHT22;27262;-35.248;149.138;2022-08-14T10:00:10;22.60;54.20
41533;DHT22;27262;-35.248;149.138;2022-08-14T10:02:57;22.50;54.50
41533;DHT22;27262;-35.248;149.138;2022-08-14T10:05:35;22.60;54.50
41533;DHT22;27262;-35.248;149.138;2022-08-14T10:08:19;22.50;54.80
41533;DHT22;27262;-35.248;149.138;2022-08-14T10:10:55;22.60;54.30
41533;DHT22;27262;-35.248;149.138;2022-08-14T10:13:29;22.50;54.80
41533;DHT22;27262;-35.248;149.138;2022-08-14T10:16:20;22.60;54.50
41533;DHT22;27262;-35.248;149.138;2022-08-14T10:19:13;22.50;54.60
41533;DHT22;27262;-35.248;149.138;2022-08-14T10:22:08;22.60;54.40
41533;DHT22;27262;-35.248;149.138;2022-08-14T10:25:09;22.50;54.30
41533;DHT22;27262;-35.248;149.138;2022-08-14T10:27:43;22.60;54.40
41533;DHT22;27262;-35.248;149.138;2022-08-14T10:30:33;22.50;54.60
41533;DHT22;27262;-35.248;149.138;2022-08-14T10:33:07;22.50;54.60
41533;DHT22;27262;-35.248;149.138;2022-08-14T10:35:42;22.50;54.60
41533;DHT22;27262;-35.248;149.138;2022-08-14T10:38:29;22.50;54.80
41533;DHT22;27262;-35.248;149.138;2022-08-14T10:41:15;22.50;54.50
41533;DHT22;27262;-35.248;149.138;2022-08-14T10:44:06;22.50;54.80
41533;DHT22;27262;-35.248;149.138;2022-08-14T10:46:53;22.50;54.50
41533;DHT22;27262;-35.248;149.138;2022-08-14T10:49:58;22.40;55.00
41533;DHT22;27262;-35.248;149.138;2022-08-14T10:52:31;22.30;55.10
41533;DHT22;27262;-35.248;149.138;2022-08-14T10:55:13;22.40;55.20
41533;DHT22;27262;-35.248;149.138;2022-08-14T10:57:53;22.50;54.80
41533;DHT22;27262;-35.248;149.138;2022-08-14T11:00:27;22.50;55.00
41533;DHT22;27262;-35.248;149.138;2022-08-14T11:03:10;22.60;54.70
41533;DHT22;27262;-35.248;149.138;2022-08-14T11:06:15;22.50;55.00
41533;DHT22;27262;-35.248;149.138;2022-08-14T11:08:51;22.60;54.60
41533;DHT22;27262;-35.248;149.138;2022-08-14T11:11:23;22.40;55.00
41533;DHT22;27262;-35.248;149.138;2022-08-14T11:14:04;22.60;54.90
41533;DHT22;27262;-35.248;149.138;2022-08-14T11:16:37;22.40;55.00
41533;DHT22;27262;-35.248;149.138;2022-08-14T11:19:22;22.50;55.60
41533;DHT22;27262;-35.248;149.138;2022-08-14T11:21:52;22.60;54.80
41533;DHT22;27262;-35.248;149.138;2022-08-14T11:24:25;22.50;55.10
41533;DHT22;27262;-35.248;149.138;2022-08-14T11:27:18;22.60;54.60
41533;DHT22;27262;-35.248;149.138;2022-08-14T11:30:09;22.50;55.00
41533;DHT22;27262;-35.248;149.138;2022-08-14T11:33:01;22.60;54.60
41533;DHT22;27262;-35.248;149.138;2022-08-14T11:35:32;22.40;55.10
41533;DHT22;27262;-35.248;149.138;2022-08-14T11:38:15;22.40;55.00
41533;DHT22;27262;-35.248;149.138;2022-08-14T11:40:55;22.30;55.20
41533;DHT22;27262;-35.248;149.138;2022-08-14T11:43:27;22.50;54.90
41533;DHT22;27262;-35.248;149.138;2022-08-14T11:46:00;22.40;55.10
41533;DHT22;27262;-35.248;149.138;2022-08-14T11:48:52;22.50;54.90
41533;DHT22;27262;-35.248;149.138;2022-08-14T11:51:31;22.40;55.00
41533;DHT22;27262;-35.248;149.138;2022-08-14T11:54:21;22.50;55.00
41533;DHT22;27262;-35.248;149.138;2022-08-14T11:57:02;22.40;55.10
41533;DHT22;27262;-35.248;149.138;2022-08-14T11:59:35;22.50;55.00
41533;DHT22;27262;-35.248;149.138;2022-08-14T12:02:15;22.50;54.90
41533;DHT22;27262;-35.248;149.138;2022-08-14T12:05:05;22.50;55.10
41533;DHT22;27262;-35.248;149.138;2022-08-14T12:07:47;22.50;54.90
41533;DHT22;27262;-35.248;149.138;2022-08-14T12:10:18;22.40;55.00
41533;DHT22;27262;-35.248;149.138;2022-08-14T12:13:17;22.60;54.90
41533;DHT22;27262;-35.248;149.138;2022-08-14T12:16:02;22.40;54.90
41533;DHT22;27262;-35.248;149.138;2022-08-14T12:18:48;22.60;54.80
41533;DHT22;27262;-35.248;149.138;2022-08-14T12:21:23;22.40;55.00
41533;DHT22;27262;-35.248;149.138;2022-08-14T12:24:07;22.50;54.80
41533;DHT22;27262;-35.248;149.138;2022-08-14T12:26:58;22.50;54.80
41533;DHT22;27262;-35.248;149.138;2022-08-14T12:29:28;22.50;54.80
41533;DHT22;27262;-35.248;149.138;2022-08-14T12:32:03;22.60;54.80
41533;DHT22;27262;-35.248;149.138;2022-08-14T12:34:40;22.50;54.80
41533;DHT22;27262;-35.248;149.138;2022-08-14T12:37:12;22.60;54.70
41533;DHT22;27262;-35.248;149.138;2022-08-14T12:39:44;22.50;54.90
41533;DHT22;27262;-35.248;149.138;2022-08-14T12:42:14;22.60;54.70
41533;DHT22;27262;-35.248;149.138;2022-08-14T12:45:01;22.50;54.80
41533;DHT22;27262;-35.248;149.138;2022-08-14T12:47:32;22.50;54.80
41533;DHT22;27262;-35.248;149.138;2022-08-14T12:50:03;22.50;54.80
41533;DHT22;27262;-35.248;149.138;2022-08-14T12:52:39;22.40;54.90
41533;DHT22;27262;-35.248;149.138;2022-08-14T12:55:28;22.60;54.60
41533;DHT22;27262;-35.248;149.138;2022-08-14T12:58:27;22.40;54.80
41533;DHT22;27262;-35.248;149.138;2022-08-14T13:01:24;22.60;54.60
41533;DHT22;27262;-35.248;149.138;2022-08-14T13:06:45;22.20;55.10
41533;DHT22;27262;-35.248;149.138;2022-08-14T13:09:19;22.00;55.60
41533;DHT22;27262;-35.248;149.138;2022-08-14T13:11:51;21.90;56.00
41533;DHT22;27262;-35.248;149.138;2022-08-14T13:14:47;21.80;56.40
41533;DHT22;27262;-35.248;149.138;2022-08-14T13:17:20;21.60;56.60
41533;DHT22;27262;-35.248;149.138;2022-08-14T13:19:55;21.50;56.80
41533;DHT22;27262;-35.248;149.138;2022-08-14T13:22:26;21.40;56.90
41533;DHT22;27262;-35.248;149.138;2022-08-14T13:25:05;21.30;57.10
41533;DHT22;27262;-35.248;149.138;2022-08-14T13:27:36;21.30;57.30
41533;DHT22;27262;-35.248;149.138;2022-08-14T13:30:09;21.20;57.40
41533;DHT22;27262;-35.248;149.138;2022-08-14T13:32:52;21.10;57.50
41533;DHT22;27262;-35.248;149.138;2022-08-14T13:35:25;21.00;57.60
41533;DHT22;27262;-35.248;149.138;2022-08-14T13:37:56;20.90;57.70
41533;DHT22;27262;-35.248;149.138;2022-08-14T13:40:26;20.90;57.90
41533;DHT22;27262;-35.248;149.138;2022-08-14T13:42:58;20.80;58.00
41533;DHT22;27262;-35.248;149.138;2022-08-14T13:45:28;20.70;58.10
41533;DHT22;27262;-35.248;149.138;2022-08-14T13:48:18;20.70;58.20
41533;DHT22;27262;-35.248;149.138;2022-08-14T13:51:03;20.60;58.20
41533;DHT22;27262;-35.248;149.138;2022-08-14T13:53:47;20.50;58.30
41533;DHT22;27262;-35.248;149.138;2022-08-14T13:56:39;20.50;58.50
41533;DHT22;27262;-35.248;149.138;2022-08-14T13:59:10;20.40;58.60
41533;DHT22;27262;-35.248;149.138;2022-08-14T14:02:07;20.40;58.70
41533;DHT22;27262;-35.248;149.138;2022-08-14T14:05:00;20.30;58.80
41533;DHT22;27262;-35.248;149.138;2022-08-14T14:07:34;20.30;58.90
41533;DHT22;27262;-35.248;149.138;2022-08-14T14:10:11;20.20;59.00
41533;DHT22;27262;-35.248;149.138;2022-08-14T14:13:02;20.10;59.00
41533;DHT22;27262;-35.248;149.138;2022-08-14T14:15:52;20.10;59.10
41533;DHT22;27262;-35.248;149.138;2022-08-14T14:18:49;20.00;59.20
41533;DHT22;27262;-35.248;149.138;2022-08-14T14:21:25;20.00;59.30
41533;DHT22;27262;-35.248;149.138;2022-08-14T14:24:00;20.00;59.40
41533;DHT22;27262;-35.248;149.138;2022-08-14T14:26:32;19.90;59.40
41533;DHT22;27262;-35.248;149.138;2022-08-14T14:29:05;19.90;59.50
41533;DHT22;27262;-35.248;149.138;2022-08-14T14:31:36;19.90;59.60
41533;DHT22;27262;-35.248;149.138;2022-08-14T14:34:08;19.80;59.70
41533;DHT22;27262;-35.248;149.138;2022-08-14T14:36:58;19.80;59.70
41533;DHT22;27262;-35.248;149.138;2022-08-14T14:39:33;19.70;59.80
41533;DHT22;27262;-35.248;149.138;2022-08-14T14:42:26;19.70;59.80
41533;DHT22;27262;-35.248;149.138;2022-08-14T14:45:11;19.70;59.90
41533;DHT22;27262;-35.248;149.138;2022-08-14T14:47:52;19.60;59.90
41533;DHT22;27262;-35.248;149.138;2022-08-14T14:50:26;19.60;60.00
41533;DHT22;27262;-35.248;149.138;2022-08-14T14:52:59;19.50;60.00
41533;DHT22;27262;-35.248;149.138;2022-08-14T14:55:40;19.50;60.10
41533;DHT22;27262;-35.248;149.138;2022-08-14T14:58:34;19.50;60.20
41533;DHT22;27262;-35.248;149.138;2022-08-14T15:01:05;19.40;60.20
41533;DHT22;27262;-35.248;149.138;2022-08-14T15:03:38;19.40;60.20
41533;DHT22;27262;-35.248;149.138;2022-08-14T15:06:12;19.40;60.30
41533;DHT22;27262;-35.248;149.138;2022-08-14T15:08:44;19.40;60.40
41533;DHT22;27262;-35.248;149.138;2022-08-14T15:11:24;19.30;60.40
41533;DHT22;27262;-35.248;149.138;2022-08-14T15:13:59;19.30;60.30
41533;DHT22;27262;-35.248;149.138;2022-08-14T15:16:52;19.30;60.30
41533;DHT22;27262;-35.248;149.138;2022-08-14T15:19:26;19.20;60.50
41533;DHT22;27262;-35.248;149.138;2022-08-14T15:21:57;19.20;60.60
41533;DHT22;27262;-35.248;149.138;2022-08-14T15:24:28;19.20;60.60
41533;DHT22;27262;-35.248;149.138;2022-08-14T15:26:59;19.10;60.70
41533;DHT22;27262;-35.248;149.138;2022-08-14T15:29:35;19.10;60.80
41533;DHT22;27262;-35.248;149.138;2022-08-14T15:32:10;19.10;60.80
41533;DHT22;27262;-35.248;149.138;2022-08-14T15:34:43;19.10;60.80
41533;DHT22;27262;-35.248;149.138;2022-08-14T15:37:19;19.10;60.90
41533;DHT22;27262;-35.248;149.138;2022-08-14T15:40:02;19.00;60.80
41533;DHT22;27262;-35.248;149.138;2022-08-14T15:42:37;19.00;60.80
41533;DHT22;27262;-35.248;149.138;2022-08-14T15:45:08;19.00;60.70
41533;DHT22;27262;-35.248;149.138;2022-08-14T15:47:41;18.90;60.60
41533;DHT22;27262;-35.248;149.138;2022-08-14T15:50:12;18.90;60.60
41533;DHT22;27262;-35.248;149.138;2022-08-14T15:52:46;18.90;60.40
41533;DHT22;27262;-35.248;149.138;2022-08-14T15:55:18;18.90;60.50
41533;DHT22;27262;-35.248;149.138;2022-08-14T15:57:51;18.80;60.50
41533;DHT22;27262;-35.248;149.138;2022-08-14T16:00:34;18.80;60.60
41533;DHT22;27262;-35.248;149.138;2022-08-14T16:03:23;18.80;60.50
41533;DHT22;27262;-35.248;149.138;2022-08-14T16:06:10;18.80;60.50
41533;DHT22;27262;-35.248;149.138;2022-08-14T16:08:50;18.70;60.40